x

Destruction Island, Wa (desw1) Weather Station

10:00pm - Tue 23rd May 2017 All times are PDT. -7 hours from GMT.

  • Wind
    25mph, 28mph gusts
  • Air Temp 51°f
  • Sea Pressure 1020.9mb
  • Destruction Island, Wa
  • Destruction Island, Wa

More Historic Weather Station data

Upgrade to MSW Pro to gain access to the past 30 days of data for over 8000 Wavebouys and Weather Stations around the globe.

Join Pro

Comparision Forecast

View Surf forecast
   
Tue 05/23 10:00pm 25 28 mph 1020.9mb 51f
9:00pm 30 32 mph 1020.5mb 51f
8:00pm 24 30 mph 1020.5mb 52f
7:00pm 28 33 mph 1020.7mb 52f
6:00pm 21 22 mph 1020.7mb 52f
5:00pm 25 28 mph 1020.4mb 53f
4:00pm 20 22 mph 1020.8mb 53f
3:00pm 18 21 mph 1020.7mb 53f
2:00pm 20 20 mph 1020.4mb 53f
1:00pm 18 20 mph 1019.9mb 53f
12:00pm 14 15 mph 1019.7mb 53f
11:00am 16 17 mph 1019.9mb 52f
10:00am 23 26 mph 1019.2mb 53f
9:00am 17 18 mph 1018.9mb 53f
8:00am 18 20 mph 1019mb 53f
7:00am 21 22 mph 1019mb 53f
6:00am 18 18 mph 1019mb 53f
5:00am 17 18 mph 1019.2mb 53f
4:00am 21 22 mph 1018.9mb 52f
3:00am 18 20 mph 1018.9mb 53f
2:00am 20 20 mph 1018.6mb 54f
1:00am 18 18 mph 1018.7mb 54f
12:00am 24 25 mph 1018.7mb 54f
Mon 05/22 11:00pm 29 31 mph 1018.5mb 55f
10:00pm 24 25 mph 1018.1mb 56f
9:00pm 24 25 mph 1018mb 59f
8:00pm 25 26 mph 1018mb 56f
7:00pm 32 34 mph 1018.3mb 57f
6:00pm 32 34 mph 1018.9mb 57f
5:00pm 25 28 mph 1019.1mb 58f
4:00pm 15 16 mph 1020mb 58f
3:00pm 13 15 mph 1020.1mb 60f
2:00pm 6 7 mph 1020.6mb 58f
1:00pm  -  0 mph 1020.8mb 59f
12:00pm  -  0 mph 1020.7mb 58f
11:00am  -  0 mph 1020.7mb 60f
10:00am 5 5 mph 1021mb 63f
9:00am 7 7 mph 1021.5mb 55f
8:00am 7 8 mph 1022mb 55f
7:00am  -  1 mph 1021.4mb 55f
6:00am 3 5 mph 1021.1mb 55f
5:00am 7 7 mph 1021.1mb 53f
4:00am 3 3 mph 1021.6mb 54f
3:00am 8 9 mph 1021.7mb 54f
2:00am 10 11 mph 1021.8mb 54f
1:00am 14 15 mph 1021.8mb 54f
12:00am 22 23 mph 1021.8mb 54f
Sun 05/21 11:00pm 22 23 mph 1021.9mb 55f
10:00pm 26 30 mph 1021.8mb 55f
9:00pm 25 28 mph 1021.4mb 55f
8:00pm 29 30 mph 1021.2mb 56f
7:00pm 28 29 mph 1021.5mb 56f
6:00pm 22 24 mph 1022.2mb 53f
5:00pm 20 22 mph 1022.8mb 55f
4:00pm 20 22 mph 1023.6mb 53f
3:00pm 11 13 mph 1024mb 53f
2:00pm 14 15 mph 1024.4mb 53f
1:00pm 10 11 mph 1024.6mb 53f
12:00pm 11 14 mph 1024.6mb 54f
11:00am 7 8 mph 1024.4mb 54f
10:00am 9 9 mph 1024.8mb 52f
9:00am 9 10 mph 1024.6mb 50f
8:00am 13 15 mph 1024.6mb 49f
7:00am 13 14 mph 1024.4mb 49f
6:00am 10 11 mph 1024.2mb 49f
5:00am 14 15 mph 1024.4mb 50f
4:00am 14 16 mph 1024.2mb 50f
3:00am 13 14 mph 1024.3mb 50f
2:00am 15 17 mph 1024.5mb 51f
1:00am 15 16 mph 1024.3mb 52f
12:00am 14 15 mph 1023.8mb 52f
Sat 05/20 11:00pm 17 18 mph 1024mb 51f
10:00pm 21 22 mph 1023.8mb 52f
9:00pm 23 24 mph 1023.4mb 52f
8:00pm 20 20 mph 1023.1mb 53f
7:00pm 23 25 mph 1023.1mb 53f
6:00pm 23 24 mph 1023.4mb 52f
5:00pm 18 22 mph 1023.8mb 53f
4:00pm 15 17 mph 1024.1mb 53f
3:00pm 15 18 mph 1024.4mb 55f
2:00pm 17 18 mph 1024.2mb 55f
1:00pm 17 17 mph 1023.7mb 55f
12:00pm 15 16 mph 1023.6mb 55f
11:00am 9 11 mph 1023.4mb 55f
10:00am 6 8 mph 1023.4mb 53f
9:00am 8 10 mph 1022.9mb 52f
8:00am 8 10 mph 1023mb 52f
7:00am 9 10 mph 1022.4mb 52f